createdAt,value
2019-03-23T00:00:28.339Z,8.10
2019-03-23T00:02:58.125Z,8.00
2019-03-23T00:05:27.654Z,8.00
2019-03-23T00:07:56.977Z,8.00
2019-03-23T00:10:26.370Z,8.10
2019-03-23T00:12:55.744Z,8.20
2019-03-23T00:15:25.313Z,8.30
2019-03-23T00:17:54.574Z,8.30
2019-03-23T00:20:23.911Z,8.30
2019-03-23T00:22:53.622Z,8.10
2019-03-23T00:25:23.079Z,8.00
2019-03-23T00:27:53.419Z,7.80
2019-03-23T00:30:22.820Z,7.80
2019-03-23T00:32:52.413Z,7.80
2019-03-23T00:35:22.511Z,7.80
2019-03-23T00:37:52.284Z,7.90
2019-03-23T00:40:21.567Z,7.90
2019-03-23T00:42:51.983Z,8.00
2019-03-23T00:45:21.555Z,7.90
2019-03-23T00:47:52.023Z,7.80
2019-03-23T00:50:21.679Z,7.80
2019-03-23T00:52:51.264Z,7.70
2019-03-23T00:55:20.687Z,7.60
2019-03-23T00:57:50.057Z,7.50
2019-03-23T01:00:19.386Z,7.40
2019-03-23T01:02:48.660Z,7.40
2019-03-23T01:05:18.030Z,7.40
2019-03-23T01:07:47.306Z,7.40
2019-03-23T01:10:16.664Z,7.50
2019-03-23T01:12:46.040Z,7.50
2019-03-23T01:15:15.874Z,7.50
2019-03-23T01:17:45.474Z,7.40
2019-03-23T01:20:14.876Z,7.40
2019-03-23T01:22:44.212Z,7.30
2019-03-23T01:25:13.873Z,7.20
2019-03-23T01:27:43.335Z,7.30
2019-03-23T01:30:13.128Z,7.30
2019-03-23T01:32:42.855Z,7.40
2019-03-23T01:35:12.553Z,7.40
2019-03-23T01:37:41.943Z,7.40
2019-03-23T01:40:11.991Z,7.30
2019-03-23T01:42:41.758Z,7.30
2019-03-23T01:45:11.428Z,7.20
2019-03-23T01:47:40.903Z,7.30
2019-03-23T01:50:11.268Z,7.20
2019-03-23T01:52:40.755Z,7.20
2019-03-23T01:55:10.457Z,7.20
2019-03-23T01:57:40.149Z,7.20
2019-03-23T02:00:09.583Z,7.10
2019-03-23T02:02:38.964Z,7.20
2019-03-23T02:05:10.208Z,7.20
2019-03-23T02:07:39.618Z,7.10
2019-03-23T02:10:09.432Z,7.10
2019-03-23T02:12:38.670Z,7.10
2019-03-23T02:15:08.726Z,7.20
2019-03-23T02:17:38.027Z,7.30
2019-03-23T02:20:08.240Z,7.30
2019-03-23T02:22:37.577Z,7.40
2019-03-23T02:25:08.505Z,7.40
2019-03-23T02:27:37.759Z,7.30
2019-03-23T02:30:07.635Z,7.30
2019-03-23T02:32:37.315Z,7.30
2019-03-23T02:35:07.887Z,7.30
2019-03-23T02:37:37.378Z,7.20
2019-03-23T02:40:07.890Z,7.30
2019-03-23T02:42:37.480Z,7.40
2019-03-23T02:45:08.440Z,7.50
2019-03-23T02:47:38.437Z,7.50
2019-03-23T02:50:08.187Z,7.50
2019-03-23T02:52:37.894Z,7.60
2019-03-23T02:55:08.744Z,7.70
2019-03-23T02:57:38.216Z,7.60
2019-03-23T03:00:08.826Z,7.60
2019-03-23T03:02:38.234Z,7.60
2019-03-23T03:05:09.414Z,7.60
2019-03-23T03:07:42.705Z,7.50
2019-03-23T03:10:11.036Z,7.50
2019-03-23T03:12:40.381Z,7.50
2019-03-23T03:15:10.278Z,7.50
2019-03-23T03:17:39.680Z,7.50
2019-03-23T03:20:11.075Z,7.60
2019-03-23T03:22:40.399Z,7.70
2019-03-23T03:25:10.039Z,7.70
2019-03-23T03:27:39.537Z,7.70
2019-03-23T03:30:09.947Z,7.70
2019-03-23T03:32:39.407Z,7.70
2019-03-23T03:35:09.160Z,7.70
2019-03-23T03:37:38.600Z,7.70
2019-03-23T03:40:09.358Z,7.70
2019-03-23T03:42:39.157Z,7.70
2019-03-23T03:45:09.741Z,7.70
2019-03-23T03:47:41.429Z,7.70
2019-03-23T03:50:11.003Z,7.70
2019-03-23T03:52:40.298Z,7.60
2019-03-23T03:55:10.062Z,7.60
2019-03-23T03:57:39.397Z,7.50
2019-03-23T04:00:09.671Z,7.50
2019-03-23T04:02:39.541Z,7.50
2019-03-23T04:05:09.212Z,7.40
2019-03-23T04:07:38.517Z,7.40
2019-03-23T04:10:08.309Z,7.40
2019-03-23T04:12:37.671Z,7.40
2019-03-23T04:15:08.011Z,7.30
2019-03-23T04:17:37.471Z,7.30
2019-03-23T04:20:07.450Z,7.40
2019-03-23T04:22:37.194Z,7.40
2019-03-23T04:25:07.729Z,7.40
2019-03-23T04:27:37.362Z,7.50
2019-03-23T04:30:07.465Z,7.40
2019-03-23T04:32:36.924Z,7.50
2019-03-23T04:35:07.256Z,7.50
2019-03-23T04:37:36.600Z,7.60
2019-03-23T04:40:07.287Z,7.60
2019-03-23T04:42:36.572Z,7.50
2019-03-23T04:45:07.095Z,7.60
2019-03-23T04:47:36.652Z,7.50
2019-03-23T04:50:06.639Z,7.60
2019-03-23T04:52:36.199Z,7.60
2019-03-23T04:55:09.153Z,7.60
2019-03-23T04:57:38.776Z,7.50
2019-03-23T05:00:08.784Z,7.60
2019-03-23T05:02:38.328Z,7.60
2019-03-23T05:05:08.121Z,7.60
2019-03-23T05:07:37.435Z,7.60
2019-03-23T05:10:07.007Z,7.60
2019-03-23T05:12:36.288Z,7.70
2019-03-23T05:15:06.567Z,7.60
2019-03-23T05:17:35.935Z,7.70
2019-03-23T05:20:06.280Z,7.70
2019-03-23T05:22:35.654Z,7.80
2019-03-23T05:25:05.693Z,7.70
2019-03-23T05:27:35.102Z,7.70
2019-03-23T05:30:05.336Z,7.60
2019-03-23T05:32:34.657Z,7.70
2019-03-23T05:35:04.233Z,7.80
2019-03-23T05:37:33.890Z,7.80
2019-03-23T05:40:03.648Z,7.90
2019-03-23T05:42:33.024Z,8.00
2019-03-23T05:45:02.621Z,8.10
2019-03-23T05:47:32.428Z,8.20
2019-03-23T05:50:01.943Z,8.20
2019-03-23T05:52:31.346Z,8.40
2019-03-23T05:55:00.988Z,8.40
2019-03-23T05:57:30.387Z,8.40
2019-03-23T05:59:59.713Z,8.40
2019-03-23T06:02:29.329Z,8.50
2019-03-23T06:04:58.722Z,8.50
2019-03-23T06:07:28.043Z,8.60
2019-03-23T06:09:57.683Z,8.60
2019-03-23T06:12:26.954Z,8.60
2019-03-23T06:14:56.278Z,8.80
2019-03-23T06:17:25.594Z,8.90
2019-03-23T06:19:54.887Z,8.90
2019-03-23T06:22:24.117Z,8.80
2019-03-23T06:24:53.631Z,8.90
2019-03-23T06:27:22.992Z,8.90
2019-03-23T06:29:52.407Z,9.00
2019-03-23T06:32:21.963Z,9.10
2019-03-23T06:34:51.326Z,9.10
2019-03-23T06:37:21.081Z,9.20
2019-03-23T06:39:50.428Z,9.30
2019-03-23T06:42:19.926Z,9.30
2019-03-23T06:44:49.359Z,9.40
2019-03-23T06:47:19.105Z,9.40
2019-03-23T06:49:48.667Z,9.50
2019-03-23T06:52:18.057Z,9.60
2019-03-23T06:54:47.828Z,9.70
2019-03-23T06:57:17.150Z,9.70
2019-03-23T06:59:46.774Z,9.80
2019-03-23T07:02:16.051Z,9.80
2019-03-23T07:04:45.448Z,9.90
2019-03-23T07:07:15.072Z,10.00
2019-03-23T07:09:44.386Z,10.10
2019-03-23T07:12:13.663Z,10.10
2019-03-23T07:14:43.466Z,10.20
2019-03-23T07:17:12.910Z,10.30
2019-03-23T07:19:42.224Z,10.50
2019-03-23T07:22:11.965Z,10.60
2019-03-23T07:24:47.026Z,10.70
2019-03-23T07:27:16.388Z,10.80
2019-03-23T07:29:45.656Z,11.00
2019-03-23T07:32:15.631Z,11.00
2019-03-23T07:34:44.980Z,11.20
2019-03-23T07:37:14.436Z,11.40
2019-03-23T07:39:43.791Z,11.50
2019-03-23T07:42:13.246Z,11.60
2019-03-23T07:44:42.906Z,11.70
2019-03-23T07:47:12.183Z,11.80
2019-03-23T07:49:42.115Z,11.90
2019-03-23T07:52:11.687Z,12.00
2019-03-23T07:54:41.353Z,12.00
2019-03-23T07:57:10.834Z,12.30
2019-03-23T07:59:40.149Z,12.40
2019-03-23T08:02:09.427Z,12.50
2019-03-23T08:04:38.788Z,12.60
2019-03-23T08:07:08.162Z,12.60
2019-03-23T08:09:38.098Z,12.80
2019-03-23T08:12:07.688Z,12.90
2019-03-23T08:14:37.026Z,13.00
2019-03-23T08:17:06.455Z,13.10
2019-03-23T08:19:35.777Z,13.30
2019-03-23T08:22:05.304Z,13.30
2019-03-23T08:24:34.705Z,13.60
2019-03-23T08:27:04.178Z,13.80
2019-03-23T08:29:33.491Z,13.90
2019-03-23T08:32:02.892Z,14.10
2019-03-23T08:34:32.177Z,14.50
2019-03-23T08:37:02.193Z,14.80
2019-03-23T08:39:31.739Z,15.50
2019-03-23T08:42:01.217Z,16.60
2019-03-23T08:44:31.666Z,17.60
2019-03-23T08:47:01.083Z,18.50
2019-03-23T08:49:30.456Z,18.90
2019-03-23T08:51:59.758Z,18.20
2019-03-23T08:54:29.059Z,17.70
2019-03-23T08:56:58.396Z,18.10
2019-03-23T08:59:29.823Z,18.20
2019-03-23T09:01:59.421Z,19.20
2019-03-23T09:04:28.844Z,19.40
2019-03-23T09:07:00.688Z,19.50
2019-03-23T09:09:30.488Z,20.40
2019-03-23T09:12:00.015Z,20.70
2019-03-23T09:14:29.308Z,21.20
2019-03-23T09:16:58.660Z,21.30
2019-03-23T09:19:27.919Z,21.00
2019-03-23T09:21:57.306Z,22.20
2019-03-23T09:24:26.554Z,23.30
2019-03-23T09:26:56.043Z,22.80
2019-03-23T09:29:25.533Z,23.10
2019-03-23T09:32:13.901Z,23.60
2019-03-23T09:34:43.255Z,24.00
2019-03-23T09:37:12.581Z,24.70
2019-03-23T09:39:41.838Z,24.50
2019-03-23T09:42:11.182Z,25.10
2019-03-23T09:44:40.512Z,24.70
2019-03-23T09:47:09.932Z,25.40
2019-03-23T09:49:39.239Z,25.50
2019-03-23T09:52:08.579Z,25.90
2019-03-23T09:54:37.850Z,24.70
2019-03-23T09:57:07.274Z,25.00
2019-03-23T09:59:36.845Z,24.80
2019-03-23T10:02:06.698Z,25.50
2019-03-23T10:04:36.017Z,25.70
2019-03-23T10:07:05.773Z,26.20
2019-03-23T10:09:35.194Z,26.30
2019-03-23T10:12:04.713Z,25.90
2019-03-23T10:14:34.007Z,26.10
2019-03-23T10:17:03.347Z,26.20
2019-03-23T10:19:32.631Z,26.40
2019-03-23T10:22:02.059Z,26.50
2019-03-23T10:24:31.644Z,26.80
2019-03-23T10:27:00.972Z,27.00
2019-03-23T10:29:30.718Z,26.80
2019-03-23T10:32:00.189Z,27.20
2019-03-23T10:34:29.563Z,27.50
2019-03-23T10:36:59.084Z,27.30
2019-03-23T10:39:28.652Z,26.90
2019-03-23T10:41:58.071Z,26.70
2019-03-23T10:44:27.336Z,27.20
2019-03-23T10:46:56.704Z,26.40
2019-03-23T10:49:26.091Z,27.30
2019-03-23T10:51:55.480Z,27.40
2019-03-23T10:54:24.804Z,27.60
2019-03-23T10:56:54.189Z,27.70
2019-03-23T10:59:23.598Z,27.60
2019-03-23T11:01:53.020Z,27.00
2019-03-23T11:04:22.286Z,27.40
2019-03-23T11:06:52.362Z,27.60
2019-03-23T11:09:21.999Z,28.00
2019-03-23T11:11:51.364Z,28.30
2019-03-23T11:14:20.710Z,28.60
2019-03-23T11:16:49.996Z,28.40
2019-03-23T11:19:19.780Z,28.80
2019-03-23T11:21:49.542Z,28.70
2019-03-23T11:24:19.075Z,27.90
2019-03-23T11:26:48.306Z,28.10
2019-03-23T11:29:17.763Z,27.70
2019-03-23T11:31:47.160Z,28.10
2019-03-23T11:34:18.144Z,27.70
2019-03-23T11:36:47.635Z,27.90
2019-03-23T11:39:17.199Z,28.00
2019-03-23T11:41:46.620Z,27.90
2019-03-23T11:44:15.901Z,28.30
2019-03-23T11:46:45.264Z,28.40
2019-03-23T11:49:14.651Z,28.40
2019-03-23T11:51:43.909Z,28.40
2019-03-23T11:54:13.238Z,28.40
2019-03-23T11:56:42.618Z,28.40
2019-03-23T11:59:11.936Z,28.80
2019-03-23T12:01:51.261Z,28.90
2019-03-23T12:04:12.359Z,27.90
2019-03-23T12:06:42.035Z,27.90
2019-03-23T12:09:11.690Z,28.60
2019-03-23T12:11:40.995Z,28.70
2019-03-23T12:14:10.303Z,28.70
2019-03-23T12:16:39.595Z,28.60
2019-03-23T12:19:09.235Z,29.10
2019-03-23T12:21:38.605Z,28.40
2019-03-23T12:24:07.951Z,28.10
2019-03-23T12:26:37.455Z,28.00
2019-03-23T12:29:06.894Z,27.80
2019-03-23T12:31:36.327Z,28.30
2019-03-23T12:34:06.007Z,28.50
2019-03-23T12:36:35.712Z,28.20
2019-03-23T12:39:06.712Z,27.60
2019-03-23T12:41:36.181Z,28.00
2019-03-23T12:44:05.968Z,28.30
2019-03-23T12:46:35.440Z,28.50
2019-03-23T12:49:04.907Z,28.00
2019-03-23T12:51:34.523Z,27.90
2019-03-23T12:54:03.882Z,28.30
2019-03-23T12:56:33.249Z,28.40
2019-03-23T12:59:02.638Z,27.70
2019-03-23T13:01:32.058Z,27.90
2019-03-23T13:04:01.499Z,27.90
2019-03-23T13:06:30.838Z,28.20
2019-03-23T13:09:00.122Z,28.30
2019-03-23T13:11:34.852Z,27.30
2019-03-23T13:14:00.746Z,26.50
2019-03-23T13:16:30.210Z,27.60
2019-03-23T13:18:59.455Z,28.00
2019-03-23T13:21:28.803Z,27.60
2019-03-23T13:23:58.147Z,27.60
2019-03-23T13:26:27.505Z,27.40
2019-03-23T13:28:57.004Z,27.30
2019-03-23T13:31:26.416Z,27.60
2019-03-23T13:33:55.775Z,27.60
2019-03-23T13:36:36.356Z,27.30
2019-03-23T13:39:07.170Z,27.40
2019-03-23T13:41:46.066Z,27.10
2019-03-23T13:44:16.832Z,26.40
2019-03-23T13:46:47.466Z,26.10
2019-03-23T13:49:16.798Z,26.00
2019-03-23T13:51:47.456Z,26.50
2019-03-23T13:54:16.963Z,25.50
2019-03-23T13:59:15.963Z,25.90
2019-03-23T14:01:45.222Z,25.90
2019-03-23T14:04:14.569Z,25.80
2019-03-23T14:09:13.199Z,25.70
2019-03-23T14:11:54.475Z,24.50
2019-03-23T14:14:15.944Z,24.30
2019-03-23T14:16:45.218Z,24.20
2019-03-23T14:19:14.503Z,25.00
2019-03-23T14:21:43.951Z,25.50
2019-03-23T14:24:13.538Z,24.30
2019-03-23T14:26:42.893Z,24.40
2019-03-23T14:29:12.280Z,24.80
2019-03-23T14:31:41.654Z,25.40
2019-03-23T14:34:11.058Z,25.50
2019-03-23T14:36:40.399Z,25.10
2019-03-23T14:39:09.683Z,25.00
2019-03-23T14:41:38.988Z,24.80
2019-03-23T14:44:08.263Z,24.60
2019-03-23T14:46:37.627Z,24.80
2019-03-23T14:49:07.334Z,24.90
2019-03-23T14:51:36.977Z,24.60
2019-03-23T14:54:06.320Z,24.50
2019-03-23T14:56:36.641Z,24.60
2019-03-23T14:59:05.952Z,24.60
2019-03-23T15:01:35.208Z,24.80
2019-03-23T15:04:04.629Z,24.70
2019-03-23T15:06:33.939Z,24.70
2019-03-23T15:09:04.683Z,24.40
2019-03-23T15:11:33.977Z,24.10
2019-03-23T15:14:03.270Z,24.30
2019-03-23T15:16:32.867Z,24.10
2019-03-23T15:19:02.458Z,24.10
2019-03-23T15:21:31.824Z,23.90
2019-03-23T15:24:01.130Z,23.80
2019-03-23T15:26:30.459Z,23.70
2019-03-23T15:28:59.924Z,23.60
2019-03-23T15:31:29.299Z,23.20
2019-03-23T15:33:58.859Z,22.50
2019-03-23T15:36:28.204Z,22.50
2019-03-23T15:38:58.958Z,22.30
2019-03-23T15:41:28.324Z,22.30
2019-03-23T15:43:58.075Z,22.30
2019-03-23T15:46:27.391Z,22.30
2019-03-23T15:48:56.790Z,22.30
2019-03-23T15:51:26.200Z,22.30
2019-03-23T15:53:55.567Z,22.10
2019-03-23T15:56:24.864Z,22.00
2019-03-23T15:58:54.260Z,21.90
2019-03-23T16:01:23.952Z,21.60
2019-03-23T16:03:53.719Z,21.40
2019-03-23T16:06:23.019Z,21.20
2019-03-23T16:08:52.898Z,21.10
2019-03-23T16:11:22.267Z,21.00
2019-03-23T16:13:52.059Z,20.80
2019-03-23T16:16:21.409Z,20.60
2019-03-23T16:18:51.089Z,20.50
2019-03-23T16:21:20.497Z,20.40
2019-03-23T16:23:50.138Z,20.30
2019-03-23T16:26:19.538Z,20.20
2019-03-23T16:28:49.230Z,20.00
2019-03-23T16:31:18.684Z,19.80
2019-03-23T16:33:49.015Z,19.70
2019-03-23T16:36:18.715Z,19.50
2019-03-23T16:38:48.746Z,19.40
2019-03-23T16:41:18.248Z,19.40
2019-03-23T16:43:47.954Z,19.10
2019-03-23T16:46:17.299Z,18.90
2019-03-23T16:48:47.039Z,18.80
2019-03-23T16:51:16.747Z,18.60
2019-03-23T16:53:46.076Z,18.40
2019-03-23T16:56:15.382Z,18.20
2019-03-23T16:58:44.805Z,18.10
2019-03-23T17:01:14.920Z,17.90
2019-03-23T17:03:44.352Z,17.60
2019-03-23T17:06:13.697Z,17.30
2019-03-23T17:08:43.070Z,17.10
2019-03-23T17:11:12.510Z,17.00
2019-03-23T17:13:41.861Z,16.60
2019-03-23T17:16:11.181Z,16.40
2019-03-23T17:18:40.532Z,16.20
2019-03-23T17:21:10.158Z,15.90
2019-03-23T17:23:39.530Z,15.70
2019-03-23T17:26:08.960Z,15.40
2019-03-23T17:28:38.434Z,15.10
2019-03-23T17:31:07.767Z,15.00
2019-03-23T17:33:37.167Z,14.90
2019-03-23T17:36:06.607Z,14.80
2019-03-23T17:38:35.948Z,14.70
2019-03-23T17:41:05.267Z,14.50
2019-03-23T17:43:34.832Z,14.40
2019-03-23T17:46:04.234Z,14.30
2019-03-23T17:48:33.944Z,14.30
2019-03-23T17:51:03.390Z,14.20
2019-03-23T17:53:32.942Z,14.00
2019-03-23T17:56:02.576Z,13.90
2019-03-23T17:58:31.980Z,13.80
2019-03-23T18:01:01.690Z,13.70
2019-03-23T18:03:30.978Z,13.60
2019-03-23T18:06:00.291Z,13.50
2019-03-23T18:08:29.686Z,13.40
2019-03-23T18:10:59.273Z,13.40
2019-03-23T18:13:28.625Z,13.20
2019-03-23T18:15:57.998Z,13.10
2019-03-23T18:18:27.320Z,13.00
2019-03-23T18:20:56.591Z,13.00
2019-03-23T18:23:25.971Z,12.90
2019-03-23T18:25:55.346Z,12.80
2019-03-23T18:28:25.004Z,12.80
2019-03-23T18:30:54.632Z,12.70
2019-03-23T18:33:23.954Z,12.60
2019-03-23T18:35:53.227Z,12.60
2019-03-23T18:38:23.315Z,12.60
2019-03-23T18:40:52.863Z,12.60
2019-03-23T18:43:27.349Z,12.50
2019-03-23T18:45:53.446Z,12.40
2019-03-23T18:48:22.800Z,12.40
2019-03-23T18:50:52.472Z,12.30
2019-03-23T18:53:23.954Z,12.30
2019-03-23T18:55:53.284Z,12.30
2019-03-23T18:58:22.614Z,12.30
2019-03-23T19:00:52.048Z,12.20
2019-03-23T19:03:21.399Z,12.10
2019-03-23T19:05:50.647Z,12.10
2019-03-23T19:08:19.990Z,12.00
2019-03-23T19:10:49.607Z,11.90
2019-03-23T19:13:19.034Z,11.80
2019-03-23T19:15:48.404Z,11.80
2019-03-23T19:18:17.766Z,11.70
2019-03-23T19:20:47.525Z,11.70
2019-03-23T19:23:16.926Z,11.60
2019-03-23T19:25:46.355Z,11.50
2019-03-23T19:28:15.706Z,11.50
2019-03-23T19:30:45.546Z,11.40
2019-03-23T19:33:15.247Z,11.50
2019-03-23T19:35:44.719Z,11.40
2019-03-23T19:38:14.078Z,11.30
2019-03-23T19:40:43.333Z,11.30
2019-03-23T19:43:13.007Z,11.20
2019-03-23T19:45:42.386Z,11.20
2019-03-23T19:48:11.760Z,11.10
2019-03-23T19:50:41.364Z,11.10
2019-03-23T19:53:10.803Z,11.00
2019-03-23T19:55:40.279Z,10.90
2019-03-23T19:58:09.914Z,10.90
2019-03-23T20:00:39.634Z,10.80
2019-03-23T20:03:08.995Z,10.70
2019-03-23T20:05:38.270Z,10.70
2019-03-23T20:08:07.658Z,10.70
2019-03-23T20:10:37.083Z,10.60
2019-03-23T20:13:07.039Z,10.50
2019-03-23T20:15:36.763Z,10.50
2019-03-23T20:18:07.141Z,10.50
2019-03-23T20:20:36.446Z,10.40
2019-03-23T20:23:05.841Z,10.40
2019-03-23T20:25:35.174Z,10.40
2019-03-23T20:30:33.234Z,10.30
2019-03-23T20:33:02.633Z,10.10
2019-03-23T20:35:32.109Z,10.00
2019-03-23T20:38:01.478Z,9.90
2019-03-23T20:40:30.859Z,10.20
2019-03-23T20:43:00.166Z,10.30
2019-03-23T20:45:31.130Z,10.40
2019-03-23T20:48:00.639Z,10.20
2019-03-23T20:50:30.044Z,10.00
2019-03-23T20:52:59.515Z,9.80
2019-03-23T20:55:30.910Z,9.70
2019-03-23T20:58:00.524Z,9.60
2019-03-23T21:00:29.962Z,9.50
2019-03-23T21:02:59.444Z,9.50
2019-03-23T21:05:33.884Z,9.40
2019-03-23T21:07:59.902Z,9.40
2019-03-23T21:10:29.258Z,9.30
2019-03-23T21:12:58.660Z,9.30
2019-03-23T21:15:27.934Z,9.30
2019-03-23T21:17:57.262Z,9.20
2019-03-23T21:20:26.736Z,9.10
2019-03-23T21:22:56.056Z,9.10
2019-03-23T21:25:25.464Z,9.00
2019-03-23T21:27:54.777Z,9.00
2019-03-23T21:30:24.142Z,9.00
2019-03-23T21:32:53.832Z,9.00
2019-03-23T21:35:23.171Z,8.90
2019-03-23T21:37:52.727Z,8.90
2019-03-23T21:40:22.112Z,9.00
2019-03-23T21:42:51.408Z,9.00
2019-03-23T21:45:20.797Z,9.00
2019-03-23T21:47:50.093Z,9.00
2019-03-23T21:50:19.481Z,9.00
2019-03-23T21:52:49.095Z,9.10
2019-03-23T21:55:18.374Z,9.10
2019-03-23T21:57:48.052Z,9.10
2019-03-23T22:00:29.615Z,9.20
2019-03-23T22:02:59.370Z,9.30
2019-03-23T22:05:28.749Z,9.30
2019-03-23T22:07:58.256Z,9.40
2019-03-23T22:10:27.623Z,9.30
2019-03-23T22:12:56.912Z,9.40
2019-03-23T22:15:29.470Z,9.40
2019-03-23T22:17:59.052Z,9.40
2019-03-23T22:20:28.516Z,9.40
2019-03-23T22:22:58.207Z,9.40
2019-03-23T22:25:27.509Z,9.30
2019-03-23T22:27:56.801Z,9.30
2019-03-23T22:30:26.218Z,9.30
2019-03-23T22:32:55.547Z,9.30
2019-03-23T22:35:24.927Z,9.30
2019-03-23T22:37:54.344Z,9.30
2019-03-23T22:40:23.605Z,9.20
2019-03-23T22:42:52.974Z,9.20
2019-03-23T22:45:22.463Z,9.20
2019-03-23T22:47:52.070Z,9.10
2019-03-23T22:50:21.359Z,9.10
2019-03-23T22:52:50.668Z,9.10
2019-03-23T22:55:20.153Z,9.10
2019-03-23T22:57:49.553Z,9.00
2019-03-23T23:00:26.696Z,9.00
2019-03-23T23:02:56.003Z,9.00
2019-03-23T23:05:25.607Z,9.00
2019-03-23T23:07:55.228Z,9.00
2019-03-23T23:10:24.686Z,9.00
2019-03-23T23:12:54.073Z,9.00
2019-03-23T23:15:23.450Z,9.00
2019-03-23T23:17:53.160Z,9.00
2019-03-23T23:20:22.478Z,9.00
2019-03-23T23:22:51.783Z,9.00
2019-03-23T23:25:21.455Z,9.00
2019-03-23T23:27:50.802Z,9.00
2019-03-23T23:30:20.501Z,9.00
2019-03-23T23:32:49.894Z,9.10
2019-03-23T23:35:19.312Z,9.10
2019-03-23T23:37:48.871Z,9.10
2019-03-23T23:40:18.111Z,9.10
2019-03-23T23:42:47.452Z,9.10
2019-03-23T23:45:17.103Z,9.10
2019-03-23T23:47:46.657Z,9.10
2019-03-23T23:50:16.099Z,9.10
2019-03-23T23:52:45.484Z,9.10
2019-03-23T23:55:14.866Z,9.10
2019-03-23T23:57:44.436Z,9.10
